MV Causeway Supplier — ZR2426 — position and weather

sailwx.info

Track history (hours):
 
Tides and Currents Weather Stations Pressure Air Temp Water Temp Dewpoint Dewpoint Depression Visibility Wind Speed Wind Dir Waves Ship Positions

MV Causeway Supplier

Last reported at 2016-Feb-02 13:33 UTC. Time now 2016-Feb-07 13:05 UTC.
Position S 29°54' E 031°00'.

Length 22 m; draft 2.7 m.

Type: . MMSI: 601041200.

Date/timePositionNaut miles runAvg speedWind from/ knotsBaromVisibWave heightAir tempDewpointWater temp
2016-Feb-02 13:33S 29°54' E 031°00'2 1.8
2016-Feb-02 12:33S 29°52' E 031°01'5 5.5
2016-Feb-02 11:34S 29°50' E 031°07'1 1.1
2016-Feb-02 10:34S 29°50' E 031°08'4 3.3
2016-Feb-02 09:24S 29°52' E 031°04'2 2.8
2016-Feb-02 08:33S 29°52' E 031°01'2 2.0
2016-Feb-02 07:33S 29°54' E 031°00'  
2016-Jan-30 09:34S 29°54' E 031°00'5 5.4
2016-Jan-30 08:33S 29°53' E 031°06'2 1.9
2016-Jan-30 07:33S 29°53' E 031°09'3 3.1
2016-Jan-30 06:33S 29°52' E 031°05'4 3.6
2016-Jan-30 05:33S 29°52' E 031°01'2 2.0
2016-Jan-30 04:33S 29°54' E 031°00'0 0.0
2016-Jan-30 03:33S 29°54' E 031°00'0 0.0
2016-Jan-29 19:33S 29°54' E 031°00'2 1.7
2016-Jan-29 18:34S 29°52' E 031°01'4 3.8
2016-Jan-29 17:33S 29°52' E 031°05'3 3.1
2016-Jan-29 16:34S 29°51' E 031°09'1 0.6
2016-Jan-29 15:33S 29°51' E 031°09'5 5.2
2016-Jan-29 14:33S 29°52' E 031°03'3 2.5
2016-Jan-29 13:34S 29°53' E 031°00'1 0.8
2016-Jan-29 12:33S 29°54' E 031°00'0 0.0
2016-Jan-29 05:33S 29°54' E 031°00'6 5.9
2016-Jan-29 04:33S 29°51' E 031°06'2 2.3
2016-Jan-29 03:33S 29°50' E 031°09'1 1.1
2016-Jan-29 02:33S 29°51' E 031°09'7 6.7
2016-Jan-29 01:34S 29°52' E 031°01'2 2.0
2016-Jan-29 00:33S 29°54' E 031°00'0 0.0
2016-Jan-28 23:33S 29°54' E 031°00'0 0.0
2016-Jan-28 22:33S 29°54' E 031°00'5 5.0
2016-Jan-28 21:33S 29°51' E 031°05'6 5.7
2016-Jan-28 20:33S 29°46' E 031°09'0 0.1
2016-Jan-28 19:34S 29°46' E 031°09'0 0.1
2016-Jan-28 18:33S 29°46' E 031°09'0 0.1
2016-Jan-28 17:33S 29°46' E 031°09'4 3.8
2016-Jan-28 16:33S 29°49' E 031°06'5 5.3
2016-Jan-28 15:33S 29°52' E 031°01'1 0.6
2016-Jan-28 14:33S 29°53' E 031°00'2 1.5
2016-Jan-28 13:33S 29°54' E 031°00'0 0.0
2016-Jan-28 12:33S 29°54' E 031°00'0 0.0
2016-Jan-28 11:33S 29°54' E 031°00'0 0.0
2016-Jan-28 10:33S 29°54' E 031°00'0 0.0
2016-Jan-28 09:33S 29°54' E 031°00'0 0.0
2016-Jan-28 08:33S 29°54' E 031°00'0 0.0
2016-Jan-28 07:33S 29°54' E 031°00'0 0.0
2016-Jan-28 06:33S 29°54' E 031°00'0 0.0
2016-Jan-28 05:33S 29°54' E 031°00'0 0.0
2016-Jan-28 04:33S 29°54' E 031°00'0 0.0
2016-Jan-28 03:33S 29°54' E 031°00'0 0.0
2016-Jan-28 02:33S 29°54' E 031°00'0 0.0
2016-Jan-28 01:33S 29°54' E 031°00'0 0.0
2016-Jan-28 00:33S 29°54' E 031°00'0 0.0
2016-Jan-27 23:33S 29°54' E 031°00'0 0.0
2016-Jan-27 22:33S 29°54' E 031°00'0 0.0
2016-Jan-27 21:33S 29°54' E 031°00'0 0.0
2016-Jan-27 20:33S 29°54' E 031°00'0 0.0
2016-Jan-27 19:33S 29°54' E 031°00'0 0.0
2016-Jan-27 18:33S 29°54' E 031°00'0 0.0
2016-Jan-27 17:33S 29°54' E 031°00'0 0.0
2016-Jan-27 16:33S 29°54' E 031°00'0 0.0
2016-Jan-27 15:33S 29°54' E 031°00'0 0.0
2016-Jan-27 14:33S 29°54' E 031°00'0 0.0
2016-Jan-27 13:33S 29°54' E 031°00'0 0.0
2016-Jan-27 12:33S 29°54' E 031°00'0 0.0
2016-Jan-27 11:33S 29°54' E 031°00'0 0.0
2016-Jan-27 10:33S 29°54' E 031°00'0 0.0
2016-Jan-26 10:33S 29°54' E 031°00'3 3.4
2016-Jan-26 09:33S 29°52' E 031°04'6 5.7
2016-Jan-26 08:33S 29°54' E 031°10'3 2.7
2016-Jan-26 07:34S 29°52' E 031°07'6 5.6
2016-Jan-26 06:33S 29°52' E 031°01'0 0.0
2016-Jan-26 05:33S 29°52' E 031°01'2 2.0
2016-Jan-26 04:33S 29°54' E 031°00'0 0.0
2016-Jan-26 03:33S 29°54' E 031°00'8 0.2
2016-Jan-24 05:34S 29°52' E 031°10'2 2.4
2016-Jan-24 04:33S 29°52' E 031°07'4 3.9
2016-Jan-24 03:33S 29°53' E 031°03'3 2.5
2016-Jan-24 02:33S 29°54' E 031°00'0 0.0
2016-Jan-23 18:24S 29°54' E 031°00'0 0.0
2016-Jan-23 17:33S 29°54' E 031°00'0 0.0
2016-Jan-23 16:33S 29°54' E 031°00'0 0.0
2016-Jan-23 15:33S 29°54' E 031°00'0 0.0
2016-Jan-23 14:33S 29°54' E 031°00'2 2.0
2016-Jan-23 13:33S 29°52' E 031°01'  
Track history (hours):
 
Tides and Currents Weather Stations Pressure Air Temp Water Temp Dewpoint Dewpoint Depression Visibility Wind Speed Wind Dir Waves Ship Positions

MV Causeway Supplier

Last reported at 2016-Feb-02 13:33 UTC. Time now 2016-Feb-07 13:05 UTC.
Position S 29°54' E 031°00'.

Length 22 m; draft 2.7 m.

Type: . MMSI: 601041200.

Date/timePositionNaut miles runAvg speedWind from/ knotsBaromVisibWave heightAir tempDewpointWater temp
2016-Feb-02 13:33S 29°54' E 031°00'2 1.8
2016-Feb-02 12:33S 29°52' E 031°01'5 5.5
2016-Feb-02 11:34S 29°50' E 031°07'1 1.1
2016-Feb-02 10:34S 29°50' E 031°08'4 3.3
2016-Feb-02 09:24S 29°52' E 031°04'2 2.8
2016-Feb-02 08:33S 29°52' E 031°01'2 2.0
2016-Feb-02 07:33S 29°54' E 031°00'  
2016-Jan-30 09:34S 29°54' E 031°00'5 5.4
2016-Jan-30 08:33S 29°53' E 031°06'2 1.9
2016-Jan-30 07:33S 29°53' E 031°09'3 3.1
2016-Jan-30 06:33S 29°52' E 031°05'4 3.6
2016-Jan-30 05:33S 29°52' E 031°01'2 2.0
2016-Jan-30 04:33S 29°54' E 031°00'0 0.0
2016-Jan-30 03:33S 29°54' E 031°00'0 0.0
2016-Jan-29 19:33S 29°54' E 031°00'2 1.7
2016-Jan-29 18:34S 29°52' E 031°01'4 3.8
2016-Jan-29 17:33S 29°52' E 031°05'3 3.1
2016-Jan-29 16:34S 29°51' E 031°09'1 0.6
2016-Jan-29 15:33S 29°51' E 031°09'5 5.2
2016-Jan-29 14:33S 29°52' E 031°03'3 2.5
2016-Jan-29 13:34S 29°53' E 031°00'1 0.8
2016-Jan-29 12:33S 29°54' E 031°00'0 0.0
2016-Jan-29 05:33S 29°54' E 031°00'6 5.9
2016-Jan-29 04:33S 29°51' E 031°06'2 2.3
2016-Jan-29 03:33S 29°50' E 031°09'1 1.1
2016-Jan-29 02:33S 29°51' E 031°09'7 6.7
2016-Jan-29 01:34S 29°52' E 031°01'2 2.0
2016-Jan-29 00:33S 29°54' E 031°00'0 0.0
2016-Jan-28 23:33S 29°54' E 031°00'0 0.0
2016-Jan-28 22:33S 29°54' E 031°00'5 5.0
2016-Jan-28 21:33S 29°51' E 031°05'6 5.7
2016-Jan-28 20:33S 29°46' E 031°09'0 0.1
2016-Jan-28 19:34S 29°46' E 031°09'0 0.1
2016-Jan-28 18:33S 29°46' E 031°09'0 0.1
2016-Jan-28 17:33S 29°46' E 031°09'4 3.8
2016-Jan-28 16:33S 29°49' E 031°06'5 5.3
2016-Jan-28 15:33S 29°52' E 031°01'1 0.6
2016-Jan-28 14:33S 29°53' E 031°00'2 1.5
2016-Jan-28 13:33S 29°54' E 031°00'0 0.0
2016-Jan-28 12:33S 29°54' E 031°00'0 0.0
2016-Jan-28 11:33S 29°54' E 031°00'0 0.0
2016-Jan-28 10:33S 29°54' E 031°00'0 0.0
2016-Jan-28 09:33S 29°54' E 031°00'0 0.0
2016-Jan-28 08:33S 29°54' E 031°00'0 0.0
2016-Jan-28 07:33S 29°54' E 031°00'0 0.0
2016-Jan-28 06:33S 29°54' E 031°00'0 0.0
2016-Jan-28 05:33S 29°54' E 031°00'0 0.0
2016-Jan-28 04:33S 29°54' E 031°00'0 0.0
2016-Jan-28 03:33S 29°54' E 031°00'0 0.0
2016-Jan-28 02:33S 29°54' E 031°00'0 0.0
2016-Jan-28 01:33S 29°54' E 031°00'0 0.0
2016-Jan-28 00:33S 29°54' E 031°00'0 0.0
2016-Jan-27 23:33S 29°54' E 031°00'0 0.0
2016-Jan-27 22:33S 29°54' E 031°00'0 0.0
2016-Jan-27 21:33S 29°54' E 031°00'0 0.0
2016-Jan-27 20:33S 29°54' E 031°00'0 0.0
2016-Jan-27 19:33S 29°54' E 031°00'0 0.0
2016-Jan-27 18:33S 29°54' E 031°00'0 0.0
2016-Jan-27 17:33S 29°54' E 031°00'0 0.0
2016-Jan-27 16:33S 29°54' E 031°00'0 0.0
2016-Jan-27 15:33S 29°54' E 031°00'0 0.0
2016-Jan-27 14:33S 29°54' E 031°00'0 0.0
2016-Jan-27 13:33S 29°54' E 031°00'0 0.0
2016-Jan-27 12:33S 29°54' E 031°00'0 0.0
2016-Jan-27 11:33S 29°54' E 031°00'0 0.0
2016-Jan-27 10:33S 29°54' E 031°00'0 0.0
2016-Jan-26 10:33S 29°54' E 031°00'3 3.4
2016-Jan-26 09:33S 29°52' E 031°04'6 5.7
2016-Jan-26 08:33S 29°54' E 031°10'3 2.7
2016-Jan-26 07:34S 29°52' E 031°07'6 5.6
2016-Jan-26 06:33S 29°52' E 031°01'0 0.0
2016-Jan-26 05:33S 29°52' E 031°01'2 2.0
2016-Jan-26 04:33S 29°54' E 031°00'0 0.0
2016-Jan-26 03:33S 29°54' E 031°00'8 0.2
2016-Jan-24 05:34S 29°52' E 031°10'2 2.4
2016-Jan-24 04:33S 29°52' E 031°07'4 3.9
2016-Jan-24 03:33S 29°53' E 031°03'3 2.5
2016-Jan-24 02:33S 29°54' E 031°00'0 0.0
2016-Jan-23 18:24S 29°54' E 031°00'0 0.0
2016-Jan-23 17:33S 29°54' E 031°00'0 0.0
2016-Jan-23 16:33S 29°54' E 031°00'0 0.0
2016-Jan-23 15:33S 29°54' E 031°00'0 0.0
2016-Jan-23 14:33S 29°54' E 031°00'2 2.0
2016-Jan-23 13:33S 29°52' E 031°01'  

Dump ship's entire track history